createdAt,value
2019-03-10T00:01:44.104Z,5.50
2019-03-10T00:04:07.241Z,5.50
2019-03-10T00:09:52.615Z,5.50
2019-03-10T00:12:34.815Z,5.50
2019-03-10T00:15:17.024Z,5.60
2019-03-10T00:17:32.439Z,5.60
2019-03-10T00:19:47.934Z,5.60
2019-03-10T00:22:02.062Z,5.60
2019-03-10T00:24:44.255Z,5.70
2019-03-10T00:27:26.433Z,5.70
2019-03-10T00:29:49.598Z,5.70
2019-03-10T00:32:12.646Z,5.80
2019-03-10T00:34:54.991Z,5.80
2019-03-10T00:37:37.180Z,5.80
2019-03-10T00:40:19.467Z,5.80
2019-03-10T00:43:01.875Z,5.80
2019-03-10T00:45:44.239Z,5.80
2019-03-10T00:48:26.493Z,5.80
2019-03-10T00:51:08.745Z,5.80
2019-03-10T00:53:31.789Z,5.80
2019-03-10T00:55:54.825Z,5.80
2019-03-10T00:58:17.967Z,5.80
2019-03-10T01:01:11.067Z,5.80
2019-03-10T01:03:44.083Z,5.80
2019-03-10T01:06:07.203Z,5.80
2019-03-10T01:10:59.251Z,5.70
2019-03-10T01:13:13.247Z,5.70
2019-03-10T01:24:04.572Z,5.80
2019-03-10T01:26:46.760Z,5.70
2019-03-10T01:29:09.812Z,5.80
2019-03-10T01:37:33.440Z,5.80
2019-03-10T01:42:25.487Z,5.80
2019-03-10T01:44:48.535Z,5.30
2019-03-10T01:49:40.675Z,5.80
2019-03-10T01:52:03.803Z,5.80
2019-03-10T01:56:55.571Z,5.80
2019-03-10T02:02:25.609Z,5.80
2019-03-10T02:05:05.536Z,5.70
2019-03-10T02:07:28.584Z,5.70
2019-03-10T02:09:51.749Z,5.60
2019-03-10T02:12:14.825Z,5.70
2019-03-10T02:14:30.207Z,5.70
2019-03-10T02:16:44.051Z,5.70
2019-03-10T02:18:59.605Z,5.60
2019-03-10T02:21:13.339Z,5.70
2019-03-10T02:23:36.402Z,5.70
2019-03-10T02:25:59.683Z,5.70
2019-03-10T02:28:43.556Z,5.60
2019-03-10T02:31:06.649Z,5.70
2019-03-10T02:33:29.703Z,5.70
2019-03-10T02:35:52.747Z,5.60
2019-03-10T02:38:15.868Z,5.60
2019-03-10T02:40:58.067Z,5.60
2019-03-10T02:43:21.191Z,5.60
2019-03-10T02:45:44.298Z,5.70
2019-03-10T02:48:07.433Z,5.50
2019-03-10T02:50:30.505Z,5.60
2019-03-10T02:52:53.544Z,5.50
2019-03-10T02:55:16.724Z,5.50
2019-03-10T02:57:41.360Z,5.50
2019-03-10T03:03:08.352Z,5.50
2019-03-10T03:05:50.548Z,5.50
2019-03-10T03:08:16.744Z,5.50
2019-03-10T03:10:38.420Z,5.50
2019-03-10T03:13:01.487Z,5.50
2019-03-10T03:15:43.712Z,5.50
2019-03-10T03:17:59.152Z,5.40
2019-03-10T03:20:13.336Z,5.40
2019-03-10T03:22:55.905Z,5.40
2019-03-10T03:25:19.021Z,5.40
2019-03-10T03:27:42.172Z,5.40
2019-03-10T03:32:54.168Z,5.40
2019-03-10T03:35:36.424Z,5.30
2019-03-10T03:40:28.539Z,5.30
2019-03-10T03:43:02.757Z,5.20
2019-03-10T03:47:45.476Z,5.20
2019-03-10T03:50:08.613Z,4.90
2019-03-10T03:52:31.682Z,5.20
2019-03-10T03:54:54.732Z,5.20
2019-03-10T03:57:17.797Z,5.20
2019-03-10T03:59:40.876Z,5.20
2019-03-10T04:02:23.034Z,5.20
2019-03-10T04:04:46.119Z,5.10
2019-03-10T04:07:28.288Z,5.10
2019-03-10T04:09:51.392Z,5.30
2019-03-10T04:12:14.527Z,5.20
2019-03-10T04:14:37.567Z,5.20
2019-03-10T04:17:00.705Z,5.30
2019-03-10T04:19:42.898Z,5.30
2019-03-10T04:21:58.586Z,5.30
2019-03-10T04:24:12.639Z,4.80
2019-03-10T04:26:35.772Z,4.10
2019-03-10T04:28:58.914Z,5.30
2019-03-10T04:31:41.393Z,5.40
2019-03-10T04:34:23.580Z,5.30
2019-03-10T04:37:05.819Z,4.80
2019-03-10T04:39:28.884Z,5.30
2019-03-10T04:44:36.413Z,5.40
2019-03-10T04:47:00.743Z,5.40
2019-03-10T04:49:23.973Z,5.40
2019-03-10T04:51:47.050Z,5.40
2019-03-10T04:54:29.284Z,5.30
2019-03-10T04:57:11.400Z,5.40
2019-03-10T04:59:34.553Z,5.30
2019-03-10T05:01:57.644Z,5.40
2019-03-10T05:04:39.872Z,4.20
2019-03-10T05:09:31.443Z,5.40
2019-03-10T05:11:54.486Z,5.40
2019-03-10T05:14:17.550Z,5.40
2019-03-10T05:16:40.675Z,5.40
2019-03-10T05:19:22.900Z,5.40
2019-03-10T05:21:45.967Z,5.40
2019-03-10T05:24:10.675Z,5.40
2019-03-10T05:26:24.891Z,5.40
2019-03-10T05:29:07.448Z,5.30
2019-03-10T05:34:33.317Z,5.40
2019-03-10T05:36:56.393Z,5.30
2019-03-10T05:39:19.447Z,5.30
2019-03-10T05:42:01.688Z,5.30
2019-03-10T05:44:43.869Z,5.40
2019-03-10T05:47:06.941Z,5.30
2019-03-10T05:49:29.983Z,5.40
2019-03-10T05:51:53.030Z,5.40
2019-03-10T05:54:35.233Z,5.30
2019-03-10T05:56:58.283Z,5.40
2019-03-10T05:59:21.344Z,5.40
2019-03-10T06:02:03.577Z,5.40
2019-03-10T06:04:26.628Z,5.40
2019-03-10T06:06:49.691Z,5.30
2019-03-10T06:11:41.624Z,5.50
2019-03-10T06:14:23.854Z,5.40
2019-03-10T06:16:46.904Z,5.40
2019-03-10T06:19:09.939Z,5.50
2019-03-10T06:21:33.035Z,5.50
2019-03-10T06:23:47.061Z,5.40
2019-03-10T06:26:10.187Z,5.50
2019-03-10T06:31:21.244Z,6.30
2019-03-10T06:33:44.295Z,5.40
2019-03-10T06:36:07.430Z,5.50
2019-03-10T06:38:30.481Z,5.50
2019-03-10T06:40:53.599Z,5.10
2019-03-10T06:43:35.811Z,5.50
2019-03-10T06:45:58.915Z,5.50
2019-03-10T06:48:22.046Z,5.50
2019-03-10T06:50:45.116Z,5.50
2019-03-10T06:53:08.183Z,5.50
2019-03-10T06:55:31.287Z,5.50
2019-03-10T06:58:13.484Z,5.60
2019-03-10T07:00:36.569Z,5.50
2019-03-10T07:02:59.635Z,5.60
2019-03-10T07:07:52.712Z,5.50
2019-03-10T07:10:15.898Z,5.60
2019-03-10T07:12:39.005Z,5.70
2019-03-10T07:15:02.057Z,5.80
2019-03-10T07:17:25.167Z,5.70
2019-03-10T07:19:48.228Z,5.80
2019-03-10T07:22:11.482Z,5.80
2019-03-10T07:24:26.928Z,5.80
2019-03-10T07:26:42.482Z,6.00
2019-03-10T07:31:52.321Z,6.00
2019-03-10T07:34:29.611Z,6.00
2019-03-10T07:37:05.594Z,6.10
2019-03-10T07:39:47.700Z,6.20
2019-03-10T07:42:29.844Z,6.30
2019-03-10T07:45:11.966Z,6.30
2019-03-10T07:47:54.216Z,6.20
2019-03-10T07:50:22.379Z,6.20
2019-03-10T07:53:04.563Z,6.20
2019-03-10T07:55:43.076Z,6.40
2019-03-10T07:58:25.288Z,6.40
2019-03-10T08:01:07.488Z,6.40
2019-03-10T08:03:49.664Z,6.50
2019-03-10T08:06:31.774Z,6.60
2019-03-10T08:09:13.872Z,6.80
2019-03-10T08:11:56.060Z,7.00
2019-03-10T08:14:38.191Z,6.70
2019-03-10T08:17:07.637Z,6.80
2019-03-10T08:19:49.732Z,6.80
2019-03-10T08:22:31.849Z,6.50
2019-03-10T08:25:13.999Z,7.00
2019-03-10T08:27:38.850Z,6.90
2019-03-10T08:30:20.981Z,6.90
2019-03-10T08:33:03.093Z,6.80
2019-03-10T08:35:45.300Z,6.80
2019-03-10T08:38:27.492Z,6.90
2019-03-10T08:41:09.594Z,6.90
2019-03-10T08:43:51.700Z,6.90
2019-03-10T08:46:33.830Z,7.00
2019-03-10T08:49:15.940Z,7.20
2019-03-10T08:51:58.092Z,7.40
2019-03-10T08:54:40.311Z,7.40
2019-03-10T08:57:22.458Z,7.30
2019-03-10T09:00:04.621Z,7.40
2019-03-10T09:02:46.820Z,7.20
2019-03-10T09:05:29.007Z,7.10
2019-03-10T09:08:11.221Z,7.00
2019-03-10T09:10:53.359Z,7.20
2019-03-10T09:13:35.481Z,6.60
2019-03-10T09:16:17.590Z,6.40
2019-03-10T09:18:59.816Z,7.20
2019-03-10T09:21:41.923Z,7.40
2019-03-10T09:24:24.067Z,7.30
2019-03-10T09:26:56.864Z,7.30
2019-03-10T09:29:38.956Z,7.50
2019-03-10T09:32:09.784Z,7.40
2019-03-10T09:34:51.924Z,7.60
2019-03-10T09:37:34.052Z,7.80
2019-03-10T09:40:16.166Z,7.90
2019-03-10T09:42:58.383Z,7.70
2019-03-10T09:45:40.504Z,7.70
2019-03-10T09:48:22.631Z,7.70
2019-03-10T09:51:04.735Z,7.60
2019-03-10T09:53:46.923Z,7.80
2019-03-10T09:56:29.137Z,7.70
2019-03-10T09:59:11.234Z,7.80
2019-03-10T10:01:53.434Z,7.70
2019-03-10T10:04:35.543Z,7.90
2019-03-10T10:07:04.057Z,8.00
2019-03-10T10:09:46.188Z,8.30
2019-03-10T10:12:28.279Z,8.20
2019-03-10T10:15:10.553Z,8.10
2019-03-10T10:17:52.701Z,8.00
2019-03-10T10:20:35.132Z,8.10
2019-03-10T10:23:17.379Z,8.20
2019-03-10T10:25:50.268Z,8.50
2019-03-10T10:28:32.420Z,8.50
2019-03-10T10:31:14.625Z,8.80
2019-03-10T10:33:56.838Z,8.50
2019-03-10T10:36:39.013Z,8.30
2019-03-10T10:39:21.131Z,8.30
2019-03-10T10:42:03.282Z,8.00
2019-03-10T10:47:22.742Z,7.40
2019-03-10T10:50:05.045Z,8.20
2019-03-10T10:52:47.229Z,8.50
2019-03-10T10:55:30.553Z,8.60
2019-03-10T10:58:13.484Z,8.80
2019-03-10T11:03:45.612Z,8.80
2019-03-10T11:06:27.723Z,8.80
2019-03-10T11:09:09.938Z,9.00
2019-03-10T11:11:52.073Z,9.30
2019-03-10T11:14:34.243Z,9.30
2019-03-10T11:17:16.351Z,9.20
2019-03-10T11:19:58.495Z,9.30
2019-03-10T11:22:40.647Z,9.10
2019-03-10T11:28:04.619Z,9.20
2019-03-10T11:30:38.609Z,9.60
2019-03-10T11:33:20.784Z,9.60
2019-03-10T11:39:05.727Z,9.70
2019-03-10T11:41:48.164Z,9.40
2019-03-10T11:44:31.837Z,9.50
2019-03-10T11:47:14.027Z,9.90
2019-03-10T11:49:56.314Z,9.20
2019-03-10T11:52:38.534Z,9.60
2019-03-10T11:57:56.485Z,9.30
2019-03-10T12:03:18.663Z,9.80
2019-03-10T12:06:00.839Z,9.60
2019-03-10T12:08:42.967Z,9.40
2019-03-10T12:11:06.110Z,9.40
2019-03-10T12:13:48.339Z,9.40
2019-03-10T12:16:11.394Z,9.10
2019-03-10T12:18:53.763Z,9.00
2019-03-10T12:21:35.934Z,9.20
2019-03-10T12:23:59.013Z,9.10
2019-03-10T12:26:22.080Z,9.60
2019-03-10T12:29:04.279Z,9.70
2019-03-10T12:31:18.152Z,9.10
2019-03-10T12:33:41.259Z,9.20
2019-03-10T12:36:04.494Z,8.10
2019-03-10T12:38:27.589Z,8.90
2019-03-10T12:40:50.695Z,9.10
2019-03-10T12:43:13.776Z,8.80
2019-03-10T12:45:55.999Z,8.90
2019-03-10T12:48:19.126Z,9.10
2019-03-10T12:50:42.185Z,9.10
2019-03-10T12:53:05.309Z,8.90
2019-03-10T12:55:28.373Z,9.00
2019-03-10T12:57:51.407Z,8.90
2019-03-10T13:03:03.991Z,8.50
2019-03-10T13:05:28.322Z,8.40
2019-03-10T13:07:52.029Z,8.60
2019-03-10T13:10:15.121Z,8.60
2019-03-10T13:12:38.205Z,8.70
2019-03-10T13:15:01.260Z,8.40
2019-03-10T13:17:24.331Z,8.20
2019-03-10T13:19:47.476Z,8.30
2019-03-10T13:24:39.107Z,9.00
2019-03-10T13:27:02.341Z,8.90
2019-03-10T13:29:44.621Z,9.00
2019-03-10T13:31:58.743Z,8.80
2019-03-10T13:34:21.829Z,8.40
2019-03-10T13:36:45.189Z,8.40
2019-03-10T13:39:08.370Z,8.10
2019-03-10T13:41:31.545Z,8.10
2019-03-10T13:43:54.714Z,8.10
2019-03-10T13:49:00.148Z,8.60
2019-03-10T13:51:23.350Z,8.30
2019-03-10T13:54:05.577Z,7.80
2019-03-10T13:56:28.756Z,8.10
2019-03-10T13:58:52.071Z,8.00
2019-03-10T14:04:04.892Z,8.10
2019-03-10T14:06:47.116Z,8.30
2019-03-10T14:14:28.375Z,8.50
2019-03-10T14:16:51.443Z,8.70
2019-03-10T14:19:14.614Z,8.40
2019-03-10T14:21:39.500Z,8.00
2019-03-10T14:24:02.612Z,8.10
2019-03-10T14:26:25.791Z,8.10
2019-03-10T14:28:51.496Z,8.00
2019-03-10T14:31:33.839Z,7.90
2019-03-10T14:33:47.739Z,7.70
2019-03-10T14:36:11.031Z,7.60
2019-03-10T14:38:34.174Z,7.60
2019-03-10T14:41:16.483Z,7.60
2019-03-10T14:43:39.607Z,6.80
2019-03-10T14:46:21.827Z,6.70
2019-03-10T14:48:45.033Z,6.50
2019-03-10T14:54:34.388Z,6.50
2019-03-10T14:57:16.690Z,6.50
2019-03-10T14:59:39.751Z,6.40
2019-03-10T15:02:02.905Z,5.70
2019-03-10T15:04:26.127Z,6.50
2019-03-10T15:09:33.230Z,7.00
2019-03-10T15:12:15.484Z,6.40
2019-03-10T15:14:38.661Z,6.10
2019-03-10T15:17:02.169Z,6.10
2019-03-10T15:19:26.660Z,6.20
2019-03-10T15:21:49.771Z,6.00
2019-03-10T15:24:12.829Z,5.60
2019-03-10T15:26:45.192Z,5.60
2019-03-10T15:29:00.831Z,5.70
2019-03-10T15:31:24.265Z,5.50
2019-03-10T15:33:38.146Z,5.60
2019-03-10T15:36:01.341Z,5.40
2019-03-10T15:38:43.532Z,5.60
2019-03-10T15:41:06.716Z,5.70
2019-03-10T15:43:49.059Z,5.50
2019-03-10T15:49:13.623Z,5.40
2019-03-10T15:51:55.816Z,5.20
2019-03-10T15:54:38.188Z,5.30
2019-03-10T15:57:01.306Z,5.40
2019-03-10T15:59:43.512Z,5.40
2019-03-10T16:02:06.547Z,5.80
2019-03-10T16:04:48.957Z,6.00
2019-03-10T16:07:31.144Z,5.80
2019-03-10T16:09:54.253Z,5.40
2019-03-10T16:12:17.350Z,5.40
2019-03-10T16:19:52.627Z,5.70
2019-03-10T16:22:15.696Z,5.50
2019-03-10T16:24:38.760Z,5.60
2019-03-10T16:27:20.967Z,5.60
2019-03-10T16:30:03.169Z,5.50
2019-03-10T16:32:40.358Z,5.50
2019-03-10T16:34:43.424Z,5.60
2019-03-10T16:36:58.979Z,5.50
2019-03-10T16:39:12.818Z,5.40
2019-03-10T16:41:35.876Z,4.90
2019-03-10T16:43:59.029Z,5.50
2019-03-10T16:46:41.219Z,5.60
2019-03-10T16:49:04.394Z,5.50
2019-03-10T16:51:46.660Z,5.50
2019-03-10T16:56:38.875Z,5.50
2019-03-10T16:59:02.096Z,5.50
2019-03-10T17:01:25.255Z,5.60
2019-03-10T17:03:48.307Z,5.50
2019-03-10T17:06:30.618Z,5.40
2019-03-10T17:09:12.816Z,5.20
2019-03-10T17:11:38.533Z,5.00
2019-03-10T17:14:19.991Z,4.80
2019-03-10T17:16:43.185Z,4.90
2019-03-10T17:19:14.346Z,5.00
2019-03-10T17:21:37.411Z,5.20
2019-03-10T17:24:00.499Z,5.30
2019-03-10T17:26:23.592Z,5.10
2019-03-10T17:29:05.861Z,5.00
2019-03-10T17:34:31.995Z,4.90
2019-03-10T17:36:46.068Z,4.80
2019-03-10T17:39:01.479Z,4.70
2019-03-10T17:41:17.099Z,4.80
2019-03-10T17:43:31.220Z,4.90
2019-03-10T17:45:54.482Z,5.00
2019-03-10T17:48:17.531Z,5.00
2019-03-10T17:50:59.733Z,4.90
2019-03-10T17:53:22.855Z,5.00
2019-03-10T17:56:05.070Z,4.80
2019-03-10T17:58:28.244Z,5.00
2019-03-10T18:01:10.460Z,4.90
2019-03-10T18:03:33.570Z,4.90
2019-03-10T18:06:15.760Z,5.00
2019-03-10T18:08:38.866Z,5.10
2019-03-10T18:11:01.943Z,5.10
2019-03-10T18:16:26.424Z,5.00
2019-03-10T18:18:49.477Z,5.10
2019-03-10T18:21:26.912Z,5.10
2019-03-10T18:23:37.430Z,5.10
2019-03-10T18:26:00.481Z,5.20
2019-03-10T18:28:23.610Z,5.20
2019-03-10T18:31:05.950Z,5.10
2019-03-10T18:33:48.196Z,5.20
2019-03-10T18:38:32.666Z,5.20
2019-03-10T18:40:46.711Z,5.10
2019-03-10T18:43:29.074Z,5.20
2019-03-10T18:45:52.183Z,5.20
2019-03-10T18:48:15.445Z,5.10
2019-03-10T18:50:38.499Z,5.10
2019-03-10T18:53:01.595Z,5.10
2019-03-10T18:55:24.773Z,5.10
2019-03-10T18:58:06.967Z,5.10
2019-03-10T19:00:30.201Z,5.00
2019-03-10T19:02:53.275Z,5.10
2019-03-10T19:04:57.105Z,5.10
2019-03-10T19:07:00.945Z,5.10
2019-03-10T19:09:06.951Z,5.00
2019-03-10T19:11:10.895Z,5.10
2019-03-10T19:13:15.030Z,5.10
2019-03-10T19:15:18.979Z,5.10
2019-03-10T19:17:22.910Z,5.10
2019-03-10T19:19:34.786Z,5.10
2019-03-10T19:21:38.646Z,5.10
2019-03-10T19:23:42.635Z,5.10
2019-03-10T19:25:46.487Z,5.10
2019-03-10T19:27:50.871Z,5.10
2019-03-10T19:29:55.011Z,5.10
2019-03-10T19:31:59.241Z,5.00
2019-03-10T19:34:03.613Z,5.00
2019-03-10T19:36:08.049Z,5.10
2019-03-10T19:38:12.114Z,5.00
2019-03-10T19:40:16.325Z,5.10
2019-03-10T19:42:20.588Z,5.10
2019-03-10T19:44:24.535Z,5.10
2019-03-10T19:46:32.178Z,5.00
2019-03-10T19:48:36.303Z,5.00
2019-03-10T19:50:40.219Z,5.00
2019-03-10T19:52:44.319Z,5.00
2019-03-10T19:54:48.164Z,5.10
2019-03-10T19:56:52.082Z,5.10
2019-03-10T19:58:55.922Z,5.10
2019-03-10T20:00:59.742Z,5.20
2019-03-10T20:03:03.696Z,5.20
2019-03-10T20:05:08.555Z,5.10
2019-03-10T20:07:12.444Z,5.20
2019-03-10T20:09:16.311Z,5.20
2019-03-10T20:11:20.280Z,5.10
2019-03-10T20:13:24.228Z,5.10
2019-03-10T20:15:28.285Z,5.20
2019-03-10T20:17:32.341Z,5.10
2019-03-10T20:19:36.423Z,5.10
2019-03-10T20:21:41.409Z,5.10
2019-03-10T20:23:45.406Z,5.10
2019-03-10T20:25:49.368Z,5.00
2019-03-10T20:27:53.371Z,5.10
2019-03-10T20:30:00.930Z,5.00
2019-03-10T20:32:13.461Z,5.00
2019-03-10T20:34:10.733Z,5.00
2019-03-10T20:36:14.633Z,5.00
2019-03-10T20:38:18.567Z,5.10
2019-03-10T20:40:22.584Z,5.00
2019-03-10T20:42:26.872Z,4.90
2019-03-10T20:44:30.758Z,4.90
2019-03-10T20:46:34.643Z,4.90
2019-03-10T20:48:38.584Z,5.00
2019-03-10T20:50:42.504Z,4.90
2019-03-10T20:52:46.517Z,4.90
2019-03-10T20:54:50.435Z,4.90
2019-03-10T20:56:54.459Z,4.80
2019-03-10T20:58:58.288Z,4.80
2019-03-10T21:01:02.131Z,4.80
2019-03-10T21:03:06.097Z,4.80
2019-03-10T21:05:10.263Z,4.90
2019-03-10T21:07:14.240Z,4.90
2019-03-10T21:09:18.114Z,4.90
2019-03-10T21:11:22.064Z,4.80
2019-03-10T21:13:25.899Z,4.90
2019-03-10T21:15:29.911Z,4.90
2019-03-10T21:17:33.930Z,4.90
2019-03-10T21:19:37.875Z,4.80
2019-03-10T21:21:41.910Z,4.80
2019-03-10T21:23:45.859Z,4.90
2019-03-10T21:25:49.761Z,4.90
2019-03-10T21:27:53.679Z,4.90
2019-03-10T21:29:57.540Z,4.90
2019-03-10T21:32:01.599Z,4.90
2019-03-10T21:34:05.540Z,5.00
2019-03-10T21:36:09.450Z,4.80
2019-03-10T21:38:13.480Z,4.70
2019-03-10T21:40:19.499Z,4.70
2019-03-10T21:42:23.383Z,4.80
2019-03-10T21:44:27.375Z,4.60
2019-03-10T21:46:31.430Z,4.40
2019-03-10T21:48:35.471Z,4.40
2019-03-10T21:50:39.409Z,4.20
2019-03-10T21:52:43.330Z,4.30
2019-03-10T21:54:48.052Z,4.20
2019-03-10T21:56:51.957Z,4.20
2019-03-10T21:58:55.840Z,4.10
2019-03-10T22:00:59.897Z,4.10
2019-03-10T22:03:03.823Z,4.10
2019-03-10T22:05:08.628Z,4.20
2019-03-10T22:07:12.607Z,4.10
2019-03-10T22:09:16.531Z,4.10
2019-03-10T22:11:20.389Z,4.00
2019-03-10T22:13:24.229Z,4.10
2019-03-10T22:15:28.253Z,4.00
2019-03-10T22:17:32.367Z,4.00
2019-03-10T22:19:36.237Z,4.10
2019-03-10T22:21:40.408Z,4.10
2019-03-10T22:23:44.683Z,4.20
2019-03-10T22:25:48.576Z,4.20
2019-03-10T22:27:52.713Z,4.10
2019-03-10T22:29:57.887Z,4.00
2019-03-10T22:32:02.027Z,4.00
2019-03-10T22:34:05.877Z,4.10
2019-03-10T22:36:09.775Z,4.10
2019-03-10T22:38:15.419Z,4.10
2019-03-10T22:40:19.479Z,4.00
2019-03-10T22:42:23.465Z,4.00
2019-03-10T22:44:27.395Z,4.00
2019-03-10T22:46:31.379Z,4.10
2019-03-10T22:48:35.230Z,4.00
2019-03-10T22:50:39.058Z,4.00
2019-03-10T22:52:43.147Z,3.90
2019-03-10T22:54:47.027Z,4.00
2019-03-10T22:56:50.898Z,4.10
2019-03-10T22:58:54.866Z,4.00
2019-03-10T23:00:58.996Z,3.90
2019-03-10T23:03:03.085Z,3.90
2019-03-10T23:05:14.344Z,4.00
2019-03-10T23:07:18.619Z,4.00
2019-03-10T23:09:22.603Z,4.00
2019-03-10T23:11:26.443Z,4.00
2019-03-10T23:13:30.310Z,4.00
2019-03-10T23:15:34.262Z,4.00
2019-03-10T23:17:38.240Z,4.00
2019-03-10T23:19:42.195Z,4.00
2019-03-10T23:21:46.098Z,4.00
2019-03-10T23:23:50.135Z,3.90
2019-03-10T23:25:54.070Z,4.00
2019-03-10T23:27:57.973Z,4.10
2019-03-10T23:30:01.893Z,4.10
2019-03-10T23:32:05.814Z,4.00
2019-03-10T23:34:09.693Z,4.00
2019-03-10T23:36:13.519Z,3.90
2019-03-10T23:38:17.418Z,3.90
2019-03-10T23:40:21.364Z,4.00
2019-03-10T23:42:25.246Z,3.90
2019-03-10T23:44:29.159Z,3.90
2019-03-10T23:46:33.011Z,3.80
2019-03-10T23:48:36.831Z,3.90
2019-03-10T23:50:40.743Z,3.90
2019-03-10T23:52:44.807Z,3.90
2019-03-10T23:54:48.852Z,3.80
2019-03-10T23:56:52.690Z,3.80
2019-03-10T23:58:56.626Z,3.90
